createdAt,value
2023-03-22T00:04:07.744Z,7.55
2023-03-22T00:09:13.044Z,7.43
2023-03-22T00:14:19.294Z,7.44
2023-03-22T00:19:24.681Z,7.58
2023-03-22T00:24:30.136Z,7.68
2023-03-22T00:29:35.388Z,7.73
2023-03-22T00:34:41.216Z,7.83
2023-03-22T00:39:46.879Z,7.86
2023-03-22T00:44:51.876Z,7.99
2023-03-22T00:49:58.530Z,8.06
2023-03-22T00:55:03.688Z,8.06
2023-03-22T01:00:17.489Z,8.18
2023-03-22T01:05:23.812Z,8.04
2023-03-22T01:10:30.043Z,8.16
2023-03-22T01:15:35.821Z,8.15
2023-03-22T01:20:41.404Z,8.01
2023-03-22T01:25:48.129Z,8.05
2023-03-22T01:30:53.464Z,7.95
2023-03-22T01:35:59.040Z,7.98
2023-03-22T01:41:04.646Z,7.94
2023-03-22T01:46:16.611Z,7.77
2023-03-22T01:51:25.805Z,7.74
2023-03-22T01:56:48.181Z,7.79
2023-03-22T02:02:03.982Z,7.71
2023-03-22T02:07:18.814Z,7.73
2023-03-22T02:12:48.711Z,7.75
2023-03-22T02:18:47.266Z,7.63
2023-03-22T02:23:55.185Z,7.62
2023-03-22T02:29:14.811Z,7.64
2023-03-22T02:34:41.497Z,7.54
2023-03-22T02:40:06.821Z,7.41
2023-03-22T02:45:29.640Z,7.37
2023-03-22T02:50:54.353Z,7.45
2023-03-22T02:56:06.369Z,7.35
2023-03-22T03:01:20.524Z,7.30
2023-03-22T03:06:28.058Z,7.27
2023-03-22T03:11:33.569Z,7.21
2023-03-22T03:16:39.919Z,7.18
2023-03-22T03:22:35.786Z,7.04
2023-03-22T03:27:51.592Z,7.00
2023-03-22T03:33:01.518Z,7.00
2023-03-22T03:38:24.860Z,7.04
2023-03-22T03:43:30.332Z,6.89
2023-03-22T03:48:38.220Z,6.94
2023-03-22T03:53:43.589Z,6.98
2023-03-22T03:58:48.886Z,7.08
2023-03-22T04:03:56.251Z,7.26
2023-03-22T04:09:29.283Z,7.51
2023-03-22T04:14:40.190Z,7.56
2023-03-22T04:19:57.387Z,7.66
2023-03-22T04:25:02.549Z,7.70
2023-03-22T04:30:14.462Z,7.99
2023-03-22T04:35:57.609Z,8.35
2023-03-22T04:41:11.777Z,8.60
2023-03-22T04:46:25.231Z,8.93
2023-03-22T04:51:40.993Z,9.07
2023-03-22T04:57:14.448Z,9.27
2023-03-22T05:02:24.482Z,9.40
2023-03-22T05:07:32.696Z,9.55
2023-03-22T05:12:42.784Z,9.74
2023-03-22T05:17:56.212Z,9.87
2023-03-22T05:23:03.249Z,10.11
2023-03-22T05:28:09.171Z,10.30
2023-03-22T05:33:22.465Z,10.47
2023-03-22T05:38:33.292Z,10.47
2023-03-22T05:43:40.074Z,10.51
2023-03-22T05:54:17.208Z,10.48
2023-03-22T05:59:39.647Z,10.61
2023-03-22T06:04:51.417Z,10.72
2023-03-22T06:09:58.020Z,10.83
2023-03-22T06:15:13.903Z,10.88
2023-03-22T06:20:45.944Z,11.09
2023-03-22T06:25:58.070Z,11.34
2023-03-22T06:31:11.673Z,11.83
2023-03-22T06:43:07.435Z,12.26
2023-03-22T06:48:18.218Z,12.11
2023-03-22T06:53:55.270Z,12.33
2023-03-22T06:59:05.282Z,12.30
2023-03-22T07:04:14.402Z,12.78
2023-03-22T07:09:27.844Z,12.63
2023-03-22T07:14:47.705Z,12.85
2023-03-22T07:20:13.201Z,13.43
2023-03-22T07:25:20.419Z,13.58
2023-03-22T07:30:30.628Z,13.53
2023-03-22T07:35:41.383Z,13.89
2023-03-22T07:40:47.498Z,14.16
2023-03-22T07:46:00.957Z,13.90
2023-03-22T07:51:27.748Z,13.59
2023-03-22T07:56:31.946Z,13.77
2023-03-22T08:01:37.821Z,14.07
2023-03-22T08:06:52.742Z,14.11
2023-03-22T08:11:57.249Z,14.39
2023-03-22T08:17:02.139Z,14.13
2023-03-22T08:22:07.381Z,14.33
2023-03-22T08:27:37.983Z,14.21
2023-03-22T08:32:42.081Z,14.52
2023-03-22T08:37:46.584Z,14.41
2023-03-22T08:42:52.007Z,14.26
2023-03-22T08:47:57.781Z,14.64
2023-03-22T08:53:07.245Z,14.79
2023-03-22T08:58:17.130Z,14.83
2023-03-22T09:03:33.557Z,14.85
2023-03-22T09:08:38.721Z,14.98
2023-03-22T09:13:48.636Z,15.22
2023-03-22T09:18:52.870Z,15.11
2023-03-22T09:24:00.981Z,14.89
2023-03-22T09:29:16.626Z,14.91
2023-03-22T09:34:21.120Z,14.92
2023-03-22T09:39:25.228Z,14.89
2023-03-22T09:44:41.659Z,14.98
2023-03-22T09:49:55.305Z,15.10
2023-03-22T09:55:00.580Z,14.93
2023-03-22T10:00:15.252Z,14.94
2023-03-22T10:05:32.646Z,14.94
2023-03-22T10:10:42.355Z,14.94
2023-03-22T10:15:50.168Z,14.84
2023-03-22T10:21:00.995Z,14.97
2023-03-22T10:26:07.341Z,15.13
2023-03-22T10:31:22.668Z,15.04
2023-03-22T10:36:35.302Z,15.04
2023-03-22T10:41:40.798Z,15.07
2023-03-22T10:46:46.216Z,15.33
2023-03-22T10:51:52.337Z,15.36
2023-03-22T10:56:57.062Z,15.47
2023-03-22T11:02:02.522Z,15.43
2023-03-22T11:07:06.805Z,15.33
2023-03-22T11:12:13.825Z,15.41
2023-03-22T11:17:23.600Z,15.22
2023-03-22T11:22:48.636Z,15.07
2023-03-22T11:28:07.020Z,15.21
2023-03-22T11:33:22.870Z,15.26
2023-03-22T11:38:37.549Z,15.28
2023-03-22T11:43:48.808Z,15.04
2023-03-22T11:49:00.983Z,14.98
2023-03-22T11:54:21.559Z,14.75
2023-03-22T11:59:37.650Z,14.81
2023-03-22T12:04:45.295Z,14.79
2023-03-22T12:10:00.409Z,14.82
2023-03-22T12:15:16.130Z,14.83
2023-03-22T12:20:43.975Z,14.87
2023-03-22T12:25:55.094Z,14.78
2023-03-22T12:31:00.261Z,14.61
2023-03-22T12:36:07.113Z,14.66
2023-03-22T12:41:18.751Z,14.54
2023-03-22T12:46:44.337Z,14.41
2023-03-22T12:51:52.582Z,14.51
2023-03-22T12:56:57.032Z,14.14
2023-03-22T13:02:18.367Z,14.02
2023-03-22T13:07:30.988Z,13.87
2023-03-22T13:12:35.906Z,13.76
2023-03-22T13:17:45.657Z,13.60
2023-03-22T13:22:49.658Z,13.56
2023-03-22T13:28:26.872Z,13.47
2023-03-22T13:33:35.275Z,13.38
2023-03-22T13:38:44.481Z,13.24
2023-03-22T13:43:52.678Z,13.16
2023-03-22T13:49:01.110Z,13.03
2023-03-22T13:54:12.226Z,12.97
2023-03-22T14:00:03.145Z,12.87
2023-03-22T14:05:22.841Z,12.80
2023-03-22T14:10:43.094Z,12.70
2023-03-22T14:15:54.893Z,12.64
2023-03-22T14:21:07.496Z,12.49
